Terminal Aerodrome Forecast
Issued by NWS Wilmington, OH

Current Version | Previous Version | Graphics & Text | Print | Product List | Glossary On
Versions: 1 2 3 4 5 6 7 8 9 10 11 12 13 14 15 16 17 18 19 20 21 22 23 24 25 26 27 28 29 30 31 32 33 34 35 36
000
FTUS41 KILN 240200 AAA
TAFCVG
TAF AMD
KCVG 240214Z 2402/2506 14018G28KT 5SM -SHRA BR SCT008 OVC012
     FM240300 17015G25KT 5SM -SHRA BR OVC008
     FM240700 21015G25KT P6SM VCSH OVC008
     FM241200 21018G32KT 5SM -SHRA BR SCT012 OVC022
     FM241600 24024G38KT 5SM -SHRA BR SCT012 OVC022
     FM241800 24020G32KT P6SM BKN025
     FM250000 24015G25KT P6SM BKN035=

USA.gov is the U.S. government's official web portal to all federal, state and local government web resources and services.